METAR Data
IDs: Format: Raw Decoded Include TAF

Data at: 2240 UTC 26 Feb 2020

METAR for:PAAK (Atka Arpt, AK, US)
Text:PAAK 262156Z AUTO 13016G19KT 10SM FEW019 BKN026 BKN032 04/01 A2933 RMK AO2 SLP934 T00390006 PNO $
Temperature: 3.9°C ( 39°F)
Dewpoint: 0.6°C ( 33°F) [RH = 79%]
Pressure (altimeter):29.33 inches Hg ( 993.3 mb) [Sea level pressure: 993.4 mb]
Winds:from the SE (130 degrees) at 18 MPH (16 knots; 8.2 m/s) gusting to 22 MPH (19 knots; 9.8 m/s)
Visibility:10 or more sm (16+ km)
Ceiling:2600 feet AGL
Clouds: few clouds at 1900 feet AGL, broken clouds at 2600 feet AGL, broken clouds at 3200 feet AGL
QC Flag:automated observation with no human augmentation; SOME DATA ABOVE MAY BE INACCURATE!!!"$" is an indication the sensor requires maintenance.
Text:PAAK 262056Z AUTO 15011KT 10SM BKN021 03/M01 A2933 RMK AO2 UPB36E38RAB38E50 SLP932 6//// T00281006 51010 PNO $
Temperature: 2.8°C ( 37°F)
Dewpoint: -0.6°C ( 31°F) [RH = 78%]
Pressure (altimeter):29.33 inches Hg ( 993.3 mb) [Sea level pressure: 993.2 mb]
Winds:from the SSE (150 degrees) at 13 MPH (11 knots; 5.7 m/s)
Visibility:10 or more sm (16+ km)
Ceiling:2100 feet AGL
Clouds: broken clouds at 2100 feet AGL
QC Flag:automated observation with no human augmentation; SOME DATA ABOVE MAY BE INACCURATE!!!"$" is an indication the sensor requires maintenance.
Text:PAAK 261956Z AUTO 14009KT 10SM SCT017 BKN023 BKN028 03/00 A2932 RMK AO2 UPB27E33RAB33E46 SLP931 T00280000 PNO $
Temperature: 2.8°C ( 37°F)
Dewpoint: 0.0°C ( 32°F) [RH = 82%]
Pressure (altimeter):29.32 inches Hg ( 993.0 mb) [Sea level pressure: 993.1 mb]
Winds:from the SE (140 degrees) at 10 MPH (9 knots; 4.6 m/s)
Visibility:10 or more sm (16+ km)
Ceiling:2300 feet AGL
Clouds: scattered clouds at 1700 feet AGL, broken clouds at 2300 feet AGL, broken clouds at 2800 feet AGL
QC Flag:automated observation with no human augmentation; SOME DATA ABOVE MAY BE INACCURATE!!!"$" is an indication the sensor requires maintenance.
Text:PAAK 261915Z AUTO 15005KT 10SM BKN019 BKN023 02/M01 A2931 RMK AO2 FZRANO PNO $
Temperature: 2.0°C ( 36°F)
Dewpoint: -1.0°C ( 30°F) [RH = 80%]
Pressure (altimeter):29.31 inches Hg ( 992.6 mb)
Winds:from the SSE (150 degrees) at 6 MPH (5 knots; 2.6 m/s)
Visibility:10 or more sm (16+ km)
Ceiling:1900 feet AGL
Clouds: broken clouds at 1900 feet AGL, broken clouds at 2300 feet AGL
QC Flag:automated observation with no human augmentation; SOME DATA ABOVE MAY BE INACCURATE!!!"$" is an indication the sensor requires maintenance.
Text:PAAK 261905Z AUTO 15007KT 10SM SCT017 SCT028 02/M01 A2931 RMK AO2 FZRANO PNO $
Temperature: 2.0°C ( 36°F)
Dewpoint: -1.0°C ( 30°F) [RH = 80%]
Pressure (altimeter):29.31 inches Hg ( 992.6 mb)
Winds:from the SSE (150 degrees) at 8 MPH (7 knots; 3.6 m/s)
Visibility:10 or more sm (16+ km)
Ceiling:at least 12,000 feet AGL
Clouds: scattered clouds at 1700 feet AGL, scattered clouds at 2800 feet AGL
QC Flag:automated observation with no human augmentation; SOME DATA ABOVE MAY BE INACCURATE!!!"$" is an indication the sensor requires maintenance.
Text:PAAK 261856Z AUTO 15005KT 10SM BKN017 02/M01 A2931 RMK AO2 RAE02UPB29E40 SLP927 T00171006 FZRANO PNO $
Temperature: 1.7°C ( 35°F)
Dewpoint: -0.6°C ( 31°F) [RH = 85%]
Pressure (altimeter):29.31 inches Hg ( 992.6 mb) [Sea level pressure: 992.7 mb]
Winds:from the SSE (150 degrees) at 6 MPH (5 knots; 2.6 m/s)
Visibility:10 or more sm (16+ km)
Ceiling:1700 feet AGL
Clouds: broken clouds at 1700 feet AGL
QC Flag:automated observation with no human augmentation; SOME DATA ABOVE MAY BE INACCURATE!!!"$" is an indication the sensor requires maintenance.
Text:PAAK 261756Z AUTO 15008KT 8SM -RA BKN017 02/00 A2930 RMK AO2 UPB00E13RAB49 SLP922 6//// T00220000 10022 21006 53007 FZRANO PNO $
Temperature: 2.2°C ( 36°F)
Dewpoint: 0.0°C ( 32°F) [RH = 85%]
Pressure (altimeter):29.30 inches Hg ( 992.3 mb) [Sea level pressure: 992.2 mb]
Winds:from the SSE (150 degrees) at 9 MPH (8 knots; 4.1 m/s)
Visibility: 8 sm ( 13 km)
Ceiling:1700 feet AGL
Clouds: broken clouds at 1700 feet AGL
Weather:-RA (light rain)
QC Flag:automated observation with no human augmentation; SOME DATA ABOVE MAY BE INACCURATE!!!"$" is an indication the sensor requires maintenance.
Text:PAAK 261743Z AUTO 13005KT 10SM SCT017 BKN025 02/M01 A2929 RMK AO2 UPB00E13 FZRANO PNO $
Temperature: 2.0°C ( 36°F)
Dewpoint: -1.0°C ( 30°F) [RH = 80%]
Pressure (altimeter):29.29 inches Hg ( 992.0 mb)
Winds:from the SE (130 degrees) at 6 MPH (5 knots; 2.6 m/s)
Visibility:10 or more sm (16+ km)
Ceiling:2500 feet AGL
Clouds: scattered clouds at 1700 feet AGL, broken clouds at 2500 feet AGL
QC Flag:automated observation with no human augmentation; SOME DATA ABOVE MAY BE INACCURATE!!!"$" is an indication the sensor requires maintenance.
Text:PAAK 261735Z AUTO 15007KT 10SM SCT017 SCT025 02/M01 A2929 RMK AO2 UPB00E13 FZRANO PNO $
Temperature: 2.0°C ( 36°F)
Dewpoint: -1.0°C ( 30°F) [RH = 80%]
Pressure (altimeter):29.29 inches Hg ( 992.0 mb)
Winds:from the SSE (150 degrees) at 8 MPH (7 knots; 3.6 m/s)
Visibility:10 or more sm (16+ km)
Ceiling:at least 12,000 feet AGL
Clouds: scattered clouds at 1700 feet AGL, scattered clouds at 2500 feet AGL
QC Flag:automated observation with no human augmentation; SOME DATA ABOVE MAY BE INACCURATE!!!"$" is an indication the sensor requires maintenance.

TAF for:PAAK (Atka Arpt, AK, US)
Text:No data found